Time;durP1;ratioP1;P1;durP2;ratioP2;P2;SDS_P1;SDS_P2;PMS_P1;PMS_P2;Temp;Humidity;BMP_temperature;BMP_pressure;BME280_temperature;BME280_humidity;BME280_pressure;Samples;Min_cycle;Max_cycle;Signal;HPM_P1;HPM_P2
2022/06/03 00:01:37;;;;;;;9.38;6.18;;;13.90;99.90;;;;;;4985459;28;20081;-57
2022/06/03 00:04:25;;;;;;;13.35;6.43;;;13.80;99.90;;;;;;4986806;28;20046;-59
2022/06/03 00:07:10;;;;;;;11.13;5.57;;;13.80;99.90;;;;;;4990549;28;20129;-57
2022/06/03 00:09:53;;;;;;;9.35;6.13;;;13.80;99.90;;;;;;4984418;28;20085;-56
2022/06/03 00:12:38;;;;;;;8.32;4.90;;;13.90;99.90;;;;;;4984805;28;20126;-56
2022/06/03 00:15:07;;;;;;;11.75;5.43;;;13.90;99.90;;;;;;4993274;28;20085;-57
2022/06/03 00:17:41;;;;;;;9.45;5.10;;;13.80;99.90;;;;;;4988385;28;20409;-55
2022/06/03 00:20:45;;;;;;;11.25;5.35;;;13.80;99.90;;;;;;4993327;28;20050;-56
2022/06/03 00:23:35;;;;;;;14.15;4.75;;;13.80;99.90;;;;;;4986756;28;20572;-55
2022/06/03 00:26:27;;;;;;;14.48;4.55;;;13.80;99.90;;;;;;4984248;28;20054;-56
2022/06/03 00:29:10;;;;;;;14.48;4.57;;;13.70;99.90;;;;;;4984117;28;20086;-56
2022/06/03 00:32:04;;;;;;;7.43;3.90;;;13.70;99.90;;;;;;4644341;28;9999828;-56
2022/06/03 00:34:42;;;;;;;18.00;4.47;;;13.70;99.90;;;;;;4988330;28;20151;-55
2022/06/03 00:37:18;;;;;;;14.77;4.50;;;13.60;99.90;;;;;;4982549;28;20572;-56
2022/06/03 00:40:29;;;;;;;8.63;4.25;;;13.70;99.90;;;;;;4981130;28;20105;-56
2022/06/03 00:43:01;;;;;;;8.77;3.97;;;13.60;99.90;;;;;;4927537;29;20142;-57
2022/06/03 00:45:49;;;;;;;11.65;4.05;;;13.60;99.90;;;;;;4922038;29;20057;-56
2022/06/03 00:48:19;;;;;;;6.88;4.15;;;13.60;99.90;;;;;;4961199;28;20092;-56
2022/06/03 00:51:23;;;;;;;10.23;4.75;;;13.60;99.90;;;;;;4990228;28;20592;-55
2022/06/03 00:54:35;;;;;;;11.23;4.35;;;13.60;99.90;;;;;;4985379;28;20084;-56
2022/06/03 00:57:02;;;;;;;6.95;4.18;;;13.60;99.90;;;;;;4967314;28;20479;-62
2022/06/03 00:59:39;;;;;;;10.02;5.05;;;13.60;99.90;;;;;;4988060;28;20406;-56
2022/06/03 01:02:14;;;;;;;10.15;4.70;;;13.50;99.90;;;;;;4986865;28;20074;-55
2022/06/03 01:04:53;;;;;;;7.50;4.68;;;13.50;99.90;;;;;;5003267;28;20487;-57
2022/06/03 01:07:33;;;;;;;11.73;4.45;;;13.50;99.90;;;;;;4989718;28;20133;-55
2022/06/03 01:10:23;;;;;;;8.27;4.28;;;13.50;99.90;;;;;;4988608;28;20134;-57
2022/06/03 01:13:13;;;;;;;8.50;4.47;;;13.50;99.90;;;;;;4984487;28;20613;-58
2022/06/03 01:15:39;;;;;;;11.80;4.05;;;13.40;99.90;;;;;;4986981;28;20077;-57
2022/06/03 01:18:33;;;;;;;12.50;4.97;;;13.40;99.90;;;;;;4985779;28;20495;-57
2022/06/03 01:21:22;;;;;;;7.67;4.60;;;13.40;99.90;;;;;;4985483;28;20070;-56
2022/06/03 01:24:32;;;;;;;7.55;3.88;;;13.40;99.90;;;;;;4988955;28;20304;-57
2022/06/03 01:27:20;;;;;;;13.60;4.15;;;13.40;99.90;;;;;;4999292;28;20047;-56
2022/06/03 01:29:58;;;;;;;7.00;3.85;;;13.40;99.90;;;;;;4988285;28;20162;-58
2022/06/03 01:32:59;;;;;;;8.85;3.63;;;13.40;99.90;;;;;;4982662;28;20076;-58
2022/06/03 01:35:44;;;;;;;9.55;3.75;;;13.40;99.90;;;;;;5004268;28;20406;-56
2022/06/03 01:38:48;;;;;;;12.02;3.85;;;13.30;99.90;;;;;;4988273;28;20120;-56
2022/06/03 01:41:51;;;;;;;11.30;4.80;;;13.30;99.90;;;;;;4986255;28;20081;-57
2022/06/03 01:44:37;;;;;;;7.07;3.50;;;13.30;99.90;;;;;;4988599;28;20581;-55
2022/06/03 01:47:38;;;;;;;10.10;4.30;;;13.30;99.90;;;;;;4986527;28;20043;-57
2022/06/03 01:50:20;;;;;;;14.48;5.10;;;13.30;99.90;;;;;;4985200;28;20137;-58
2022/06/03 01:53:11;;;;;;;12.20;4.72;;;13.30;99.90;;;;;;4987834;28;20130;-57
2022/06/03 01:56:14;;;;;;;14.55;5.05;;;13.30;99.90;;;;;;4988723;28;20069;-58
2022/06/03 01:58:50;;;;;;;10.20;4.03;;;13.30;99.90;;;;;;4980592;28;20046;-55
2022/06/03 02:01:19;;;;;;;9.57;4.60;;;13.30;99.90;;;;;;4984679;28;20133;-56
2022/06/03 02:03:49;;;;;;;13.32;6.00;;;13.30;99.90;;;;;;4988739;28;20046;-56
2022/06/03 02:06:43;;;;;;;10.02;5.47;;;13.30;99.90;;;;;;4987342;28;20077;-59
2022/06/03 02:09:14;;;;;;;12.75;6.32;;;13.30;99.90;;;;;;4985980;28;20129;-57
2022/06/03 02:12:04;;;;;;;12.55;6.63;;;13.30;99.90;;;;;;4984934;28;20142;-56
2022/06/03 02:15:02;;;;;;;12.90;5.70;;;13.40;99.90;;;;;;4981675;28;20081;-57
2022/06/03 02:17:56;;;;;;;9.70;6.03;;;13.40;99.90;;;;;;4983016;28;20046;-57
2022/06/03 02:21:05;;;;;;;15.77;6.53;;;13.40;99.90;;;;;;4986827;28;20046;-53
2022/06/03 02:23:54;;;;;;;13.15;6.53;;;13.40;99.90;;;;;;4986114;28;20292;-59
2022/06/03 02:26:42;;;;;;;13.10;6.78;;;13.40;99.90;;;;;;4985409;28;20137;-57
2022/06/03 02:32:40;;;;;;;11.57;6.03;;;13.30;99.90;;;;;;4985766;28;20751;-56
2022/06/03 02:35:23;;;;;;;10.93;6.88;;;13.30;99.90;;;;;;4979436;28;20047;-56
2022/06/03 02:38:18;;;;;;;20.42;7.93;;;13.30;99.90;;;;;;4987333;28;20118;-57
2022/06/03 02:41:00;;;;;;;12.45;7.32;;;13.30;99.90;;;;;;4981754;28;20524;-56
2022/06/03 02:43:45;;;;;;;11.43;6.22;;;13.30;99.90;;;;;;4981820;28;20069;-56
2022/06/03 02:46:12;;;;;;;12.38;6.90;;;13.30;99.90;;;;;;4985341;28;20047;-55
2022/06/03 02:49:16;;;;;;;16.55;6.68;;;13.40;99.90;;;;;;4979253;28;20050;-58
2022/06/03 02:51:43;;;;;;;13.10;6.68;;;13.40;99.90;;;;;;4987985;28;20124;-57
2022/06/03 02:54:40;;;;;;;13.13;6.40;;;13.30;99.90;;;;;;4988007;28;20085;-58
2022/06/03 02:57:16;;;;;;;11.80;6.07;;;13.30;99.90;;;;;;4981095;28;20134;-58
2022/06/03 03:00:07;;;;;;;13.20;6.15;;;13.30;99.90;;;;;;4987620;28;20050;-57
2022/06/03 03:02:53;;;;;;;8.27;6.10;;;13.30;99.90;;;;;;4987724;28;20106;-58
2022/06/03 03:05:45;;;;;;;13.57;6.43;;;13.30;99.90;;;;;;4987132;28;20534;-57
2022/06/03 03:08:27;;;;;;;12.82;6.35;;;13.30;99.90;;;;;;4973383;28;20563;-55
2022/06/03 03:11:12;;;;;;;12.52;7.25;;;13.30;99.90;;;;;;4986386;28;20058;-55
2022/06/03 03:14:06;;;;;;;9.63;6.03;;;13.30;99.90;;;;;;4984824;28;20126;-60
2022/06/03 03:16:39;;;;;;;;;;;13.30;99.90;;;;;;4979206;28;20141;-57
2022/06/03 03:19:37;;;;;;;13.02;5.53;;;13.20;99.90;;;;;;4985649;28;20645;-56
2022/06/03 03:22:27;;;;;;;8.27;5.68;;;13.20;99.90;;;;;;4987242;28;20149;-58
2022/06/03 03:25:15;;;;;;;8.52;5.40;;;13.20;99.90;;;;;;4984675;28;20137;-56
2022/06/03 03:27:45;;;;;;;9.65;5.40;;;13.20;99.90;;;;;;4987338;28;20074;-56
2022/06/03 03:30:19;;;;;;;8.73;5.20;;;13.20;99.90;;;;;;4986899;28;20062;-56
2022/06/03 03:33:30;;;;;;;9.70;5.35;;;13.20;99.90;;;;;;4981261;28;20152;-53
2022/06/03 03:36:25;;;;;;;7.75;5.70;;;13.20;99.90;;;;;;4979292;28;20129;-55
2022/06/03 03:39:10;;;;;;;9.25;6.30;;;13.20;99.90;;;;;;4983279;28;20138;-58
2022/06/03 03:41:43;;;;;;;16.42;5.85;;;13.20;99.90;;;;;;4987107;28;20046;-57
2022/06/03 03:44:34;;;;;;;14.63;5.88;;;13.20;99.90;;;;;;4984084;28;20054;-59
2022/06/03 03:47:35;;;;;;;10.98;5.90;;;13.20;99.90;;;;;;4986104;28;20717;-55
2022/06/03 03:50:20;;;;;;;10.70;4.88;;;13.20;99.90;;;;;;4986627;28;20130;-57
2022/06/03 03:53:06;;;;;;;8.60;5.32;;;13.30;99.90;;;;;;4980369;28;20046;-56
2022/06/03 03:55:56;;;;;;;9.32;4.95;;;13.30;99.90;;;;;;4984654;28;20220;-57
2022/06/03 03:58:45;;;;;;;9.07;4.95;;;13.30;99.90;;;;;;4983536;28;20069;-57
2022/06/03 04:01:33;;;;;;;10.45;4.75;;;13.20;99.90;;;;;;4984936;28;20129;-56
2022/06/03 04:04:17;;;;;;;11.52;5.47;;;13.20;99.90;;;;;;4981938;28;20059;-59
2022/06/03 04:06:54;;;;;;;8.32;4.95;;;13.20;99.90;;;;;;4982850;28;20061;-56
2022/06/03 04:09:23;;;;;;;8.73;4.60;;;13.10;99.90;;;;;;4986157;28;20066;-57
2022/06/03 04:12:35;;;;;;;15.00;5.30;;;13.10;99.90;;;;;;4978991;28;20094;-57
2022/06/03 04:15:47;;;;;;;9.32;4.53;;;13.10;99.90;;;;;;4985318;28;20082;-57
2022/06/03 04:18:38;;;;;;;11.98;4.35;;;13.00;99.90;;;;;;4984206;28;20078;-58
2022/06/03 04:21:35;;;;;;;8.93;4.57;;;12.90;99.90;;;;;;4984648;28;20074;-56
2022/06/03 04:24:35;;;;;;;6.25;3.50;;;12.90;99.90;;;;;;4986481;28;20088;-56
2022/06/03 04:27:24;;;;;;;14.38;4.90;;;12.90;99.90;;;;;;4972408;28;20074;-58
2022/06/03 04:30:12;;;;;;;9.18;5.00;;;12.90;99.90;;;;;;4979451;28;20081;-57
2022/06/03 04:33:08;;;;;;;9.57;4.70;;;12.80;99.90;;;;;;4985789;28;20138;-56
2022/06/03 04:35:54;;;;;;;13.00;5.30;;;12.80;99.90;;;;;;4979928;28;20122;-58
2022/06/03 04:38:35;;;;;;;12.82;4.60;;;12.80;99.90;;;;;;4985064;28;20074;-55
2022/06/03 04:41:20;;;;;;;15.35;5.13;;;12.80;99.90;;;;;;4979134;28;20101;-57
2022/06/03 04:44:02;;;;;;;9.20;4.88;;;12.70;99.90;;;;;;4987315;28;20122;-58
2022/06/03 04:46:32;;;;;;;11.93;4.20;;;12.70;99.90;;;;;;4985855;28;20085;-56
2022/06/03 04:49:13;;;;;;;13.13;5.13;;;12.70;99.90;;;;;;4980321;28;20082;-55
2022/06/03 04:52:18;;;;;;;8.35;4.57;;;12.70;99.90;;;;;;4980082;28;20556;-54
2022/06/03 04:55:19;;;;;;;9.82;4.53;;;12.80;99.90;;;;;;4979121;28;20051;-52
2022/06/03 04:58:21;;;;;;;9.07;4.05;;;12.70;99.90;;;;;;4985193;28;20038;-51
2022/06/03 05:01:17;;;;;;;9.23;4.63;;;12.60;99.90;;;;;;4947420;28;20050;-55
2022/06/03 05:04:11;;;;;;;10.23;4.55;;;12.80;99.90;;;;;;5004197;28;20146;-60
2022/06/03 05:06:54;;;;;;;9.10;4.88;;;12.80;99.90;;;;;;4980590;28;20473;-59
2022/06/03 05:09:39;;;;;;;10.70;5.80;;;12.80;99.90;;;;;;4981342;28;20461;-56
2022/06/03 05:12:37;;;;;;;9.30;4.72;;;12.90;99.90;;;;;;4988066;28;20078;-57
2022/06/03 05:15:32;;;;;;;8.82;4.68;;;12.90;99.90;;;;;;4972237;28;20212;-55
2022/06/03 05:18:03;;;;;;;6.70;4.65;;;13.10;99.90;;;;;;4987429;28;20104;-54
2022/06/03 05:20:42;;;;;;;7.82;4.88;;;13.20;99.90;;;;;;4990171;28;20559;-55
2022/06/03 05:23:13;;;;;;;6.85;5.00;;;13.20;99.90;;;;;;4990123;28;20042;-55
2022/06/03 05:25:52;;;;;;;9.88;5.05;;;13.30;99.90;;;;;;4980283;28;20084;-53
2022/06/03 05:28:34;;;;;;;12.45;5.00;;;13.30;99.90;;;;;;4989863;28;20080;-54
2022/06/03 05:31:16;;;;;;;10.10;4.72;;;13.50;99.90;;;;;;4988190;28;20066;-54
2022/06/03 05:34:10;;;;;;;10.32;5.20;;;13.60;99.90;;;;;;4989858;28;20104;-54
2022/06/03 05:37:02;;;;;;;15.93;5.65;;;13.70;99.90;;;;;;4986096;28;20164;-56
2022/06/03 05:40:04;;;;;;;8.30;4.57;;;13.80;99.90;;;;;;4984573;28;20047;-55
2022/06/03 05:42:47;;;;;;;7.03;4.80;;;13.90;99.90;;;;;;4972246;28;20077;-56
2022/06/03 05:45:34;;;;;;;14.68;5.63;;;14.00;99.90;;;;;;4986875;28;20086;-57
2022/06/03 05:48:10;;;;;;;10.73;5.10;;;14.10;99.90;;;;;;4980698;28;20073;-57
2022/06/03 05:50:51;;;;;;;8.00;4.65;;;14.20;99.90;;;;;;4980798;28;20066;-56
2022/06/03 05:53:39;;;;;;;7.78;4.57;;;14.30;99.90;;;;;;4979162;28;20062;-57
2022/06/03 05:56:34;;;;;;;11.52;5.25;;;14.30;99.90;;;;;;4987706;28;20050;-57
2022/06/03 05:59:01;;;;;;;20.58;5.47;;;14.40;99.90;;;;;;4983827;28;20497;-57
2022/06/03 06:01:42;;;;;;;16.23;6.05;;;14.50;99.90;;;;;;4988571;28;20082;-55
2022/06/03 06:04:27;;;;;;;26.05;8.15;;;14.50;99.90;;;;;;4981734;28;20108;-57
2022/06/03 06:07:08;;;;;;;17.52;6.00;;;14.50;99.90;;;;;;4989785;28;20079;-56
2022/06/03 06:09:44;;;;;;;10.27;5.40;;;14.50;99.90;;;;;;4996510;28;20129;-57
2022/06/03 06:12:38;;;;;;;13.80;6.20;;;14.50;99.90;;;;;;4976246;28;20137;-56
2022/06/03 06:15:29;;;;;;;16.60;6.93;;;14.50;99.90;;;;;;4988621;28;20049;-57
2022/06/03 06:18:01;;;;;;;17.08;6.53;;;14.50;99.90;;;;;;4980978;28;20101;-57
2022/06/03 06:20:46;;;;;;;14.27;5.45;;;14.50;99.90;;;;;;4990318;28;20038;-57
2022/06/03 06:23:42;;;;;;;10.43;5.47;;;14.50;99.90;;;;;;4986065;28;20525;-57
2022/06/03 06:26:12;;;;;;;18.30;5.35;;;14.40;99.90;;;;;;4987685;28;20134;-58
2022/06/03 06:29:00;;;;;;;10.40;5.80;;;14.40;99.90;;;;;;4987905;28;20497;-57
2022/06/03 06:31:54;;;;;;;17.08;5.57;;;14.40;99.90;;;;;;4980200;28;20085;-59
2022/06/03 06:34:57;;;;;;;13.80;7.10;;;14.40;99.90;;;;;;4977667;28;20046;-57
2022/06/03 06:37:43;;;;;;;14.63;7.10;;;14.50;99.90;;;;;;4983415;28;20515;-56
2022/06/03 06:40:19;;;;;;;13.02;6.25;;;14.50;99.90;;;;;;4985934;28;20116;-57
2022/06/03 06:42:52;;;;;;;22.83;8.27;;;14.60;99.90;;;;;;4987055;28;20073;-59
2022/06/03 06:45:28;;;;;;;14.15;6.57;;;14.60;99.90;;;;;;4987070;28;20073;-58
2022/06/03 06:48:33;;;;;;;15.77;6.50;;;14.70;99.90;;;;;;4976537;28;20055;-58
2022/06/03 06:51:09;;;;;;;15.60;6.40;;;14.80;99.90;;;;;;4934175;28;20597;-57
2022/06/03 06:54:07;;;;;;;14.10;6.32;;;14.90;99.90;;;;;;4977070;28;20142;-57
2022/06/03 06:57:06;;;;;;;12.38;6.15;;;14.90;99.90;;;;;;4967516;28;20112;-57
2022/06/03 06:59:40;;;;;;;16.10;6.18;;;14.90;99.90;;;;;;4985325;28;20076;-57
2022/06/03 07:02:15;;;;;;;12.90;6.43;;;15.00;99.90;;;;;;4631530;28;10000562;-54
2022/06/03 07:04:45;;;;;;;14.02;6.15;;;15.10;99.90;;;;;;4981722;28;20078;-57
2022/06/03 07:07:34;;;;;;;14.02;6.93;;;15.10;99.90;;;;;;4976825;28;20050;-54
2022/06/03 07:10:20;;;;;;;16.42;6.20;;;15.20;99.90;;;;;;4983509;28;20088;-56
2022/06/03 07:12:52;;;;;;;16.30;5.95;;;15.40;99.90;;;;;;4975803;28;20094;-55
2022/06/03 07:15:53;;;;;;;18.80;7.90;;;15.40;99.90;;;;;;4977018;28;20536;-53
2022/06/03 07:21:50;;;;;;;13.10;5.80;;;15.60;99.90;;;;;;4980990;28;20727;-56
2022/06/03 07:24:22;;;;;;;17.60;5.97;;;15.60;99.90;;;;;;4972671;28;20145;-55
2022/06/03 07:26:51;;;;;;;13.88;6.75;;;15.70;99.90;;;;;;4998081;28;20529;-57
2022/06/03 07:29:49;;;;;;;9.05;5.70;;;15.70;99.90;;;;;;4979851;28;20221;-56
2022/06/03 07:32:26;;;;;;;12.82;5.38;;;15.80;99.90;;;;;;4982787;28;20126;-58
2022/06/03 07:34:56;;;;;;;15.65;6.95;;;15.80;99.90;;;;;;4979960;28;20131;-56
2022/06/03 07:37:29;;;;;;;15.00;5.85;;;15.90;99.90;;;;;;4992066;28;20077;-57
2022/06/03 07:39:58;;;;;;;12.10;6.18;;;16.00;99.90;;;;;;4979378;28;20988;-55
2022/06/03 07:42:52;;;;;;;11.20;5.90;;;16.10;99.90;;;;;;4979338;28;20042;-55
2022/06/03 07:45:31;;;;;;;11.18;6.15;;;16.20;99.90;;;;;;4984548;28;20054;-55
2022/06/03 07:48:05;;;;;;;17.92;6.53;;;16.20;99.90;;;;;;4977487;28;20445;-56
2022/06/03 07:50:36;;;;;;;14.55;6.40;;;16.20;99.90;;;;;;4977489;28;20580;-56
2022/06/03 07:53:09;;;;;;;12.73;5.50;;;16.30;99.90;;;;;;4966040;28;20132;-57
2022/06/03 07:55:36;;;;;;;;;;;16.40;99.90;;;;;;4983744;28;20134;-54
2022/06/03 07:58:06;;;;;;;16.90;6.10;;;16.50;99.90;;;;;;4976907;28;19981;-56
2022/06/03 08:00:37;;;;;;;16.35;6.15;;;16.50;99.90;;;;;;4976738;28;20054;-55
2022/06/03 08:03:16;;;;;;;12.57;6.75;;;16.50;99.90;;;;;;4988688;28;20050;-55
2022/06/03 08:05:49;;;;;;;12.88;5.88;;;16.50;99.90;;;;;;4973909;28;20393;-56
2022/06/03 08:11:22;;;;;;;14.13;5.68;;;16.70;99.90;;;;;;4975940;28;20130;-55
2022/06/03 08:13:50;;;;;;;14.05;4.50;;;16.80;99.90;;;;;;4982624;28;20488;-55
2022/06/03 08:16:29;;;;;;;11.23;4.38;;;17.00;99.90;;;;;;4975306;28;20105;-56
2022/06/03 08:18:58;;;;;;;13.35;5.05;;;17.10;99.90;;;;;;4969973;28;20101;-56
2022/06/03 08:21:47;;;;;;;9.25;4.50;;;17.10;99.90;;;;;;4967370;28;20130;-56
2022/06/03 08:24:16;;;;;;;13.32;4.53;;;17.30;99.90;;;;;;4983400;28;20058;-56
2022/06/03 08:26:44;;;;;;;15.45;4.97;;;17.40;99.90;;;;;;4981823;28;20098;-56
2022/06/03 08:29:39;;;;;;;12.73;5.32;;;17.50;99.90;;;;;;4982330;28;20050;-56
2022/06/03 08:32:21;;;;;;;11.82;5.72;;;17.60;99.90;;;;;;4977129;28;20360;-55
2022/06/03 08:34:50;;;;;;;14.52;5.20;;;17.70;99.90;;;;;;4981397;28;20050;-57
2022/06/03 08:37:22;;;;;;;9.60;4.70;;;17.80;99.90;;;;;;4982027;28;20058;-57
2022/06/03 08:39:50;;;;;;;8.40;4.13;;;17.90;99.90;;;;;;4988284;28;20117;-57
2022/06/03 08:42:22;;;;;;;20.45;5.78;;;18.10;99.90;;;;;;4984932;28;20074;-56
2022/06/03 08:44:54;;;;;;;11.88;4.80;;;18.20;99.90;;;;;;4984505;28;20054;-57
2022/06/03 08:47:52;;;;;;;12.32;4.78;;;18.30;99.90;;;;;;4976387;28;20104;-57
2022/06/03 08:50:48;;;;;;;11.63;4.55;;;18.40;99.90;;;;;;4977984;28;20077;-57
2022/06/03 08:53:26;;;;;;;13.43;4.13;;;18.40;99.90;;;;;;4981597;28;20108;-55
2022/06/03 08:55:59;;;;;;;8.90;4.18;;;18.50;99.90;;;;;;4988016;28;20459;-56
2022/06/03 08:58:56;;;;;;;15.07;4.50;;;18.50;99.90;;;;;;4986863;28;20065;-58
2022/06/03 09:01:27;;;;;;;17.17;5.43;;;18.60;99.90;;;;;;4982974;28;20057;-56
2022/06/03 09:04:14;;;;;;;8.77;4.53;;;18.70;99.90;;;;;;4986393;28;20085;-56
2022/06/03 09:06:45;;;;;;;10.68;4.75;;;18.70;99.90;;;;;;4986669;28;20109;-57
2022/06/03 09:09:41;;;;;;;16.88;4.72;;;18.80;99.90;;;;;;4985105;28;20042;-54
2022/06/03 09:12:49;;;;;;;7.93;4.65;;;18.90;99.90;;;;;;4982227;28;20066;-57
2022/06/03 09:15:25;;;;;;;10.77;4.85;;;19.00;99.90;;;;;;4981168;28;20049;-55
2022/06/03 09:17:59;;;;;;;9.43;4.47;;;19.20;99.90;;;;;;4982076;28;20081;-57
2022/06/03 09:20:45;;;;;;;11.82;4.95;;;19.30;99.90;;;;;;4985840;28;20082;-57
2022/06/03 09:23:15;;;;;;;9.75;4.03;;;19.40;99.90;;;;;;4982126;28;20125;-58
2022/06/03 09:25:44;;;;;;;7.72;4.85;;;19.50;99.90;;;;;;4984741;28;20643;-58
2022/06/03 09:28:14;;;;;;;9.35;4.32;;;19.60;99.90;;;;;;4985044;28;20517;-59
2022/06/03 09:30:41;;;;;;;14.05;3.78;;;19.70;99.90;;;;;;4984838;28;20050;-58
2022/06/03 09:33:09;;;;;;;10.57;4.20;;;19.80;99.90;;;;;;4980647;28;20050;-56
2022/06/03 09:35:38;;;;;;;8.57;4.07;;;19.90;99.90;;;;;;4979121;28;20138;-58
2022/06/03 09:38:05;;;;;;;9.10;4.60;;;20.10;99.90;;;;;;4976645;28;20389;-57
2022/06/03 09:40:39;;;;;;;8.93;3.92;;;20.10;99.90;;;;;;4981096;28;20086;-58
2022/06/03 09:43:23;;;;;;;8.35;4.28;;;20.20;99.90;;;;;;4984299;28;20454;-57
2022/06/03 09:45:51;;;;;;;9.65;3.88;;;20.20;99.90;;;;;;4979368;28;20051;-53
2022/06/03 09:48:20;;;;;;;8.25;4.45;;;20.40;99.90;;;;;;4984866;28;20050;-57
2022/06/03 09:50:51;;;;;;;13.70;6.05;;;20.60;99.60;;;;;;4980716;28;20054;-56
2022/06/03 09:53:20;;;;;;;8.98;4.32;;;20.70;99.10;;;;;;4984042;28;20133;-57
2022/06/03 09:55:50;;;;;;;6.85;3.65;;;20.90;99.20;;;;;;4976681;28;20059;-58
2022/06/03 09:58:25;;;;;;;6.38;3.70;;;20.90;98.90;;;;;;4983024;28;20053;-58
2022/06/03 10:00:53;;;;;;;17.67;4.88;;;21.10;97.30;;;;;;4985405;28;20054;-56
2022/06/03 10:03:20;;;;;;;10.18;3.83;;;21.10;96.30;;;;;;4986001;28;20058;-56
2022/06/03 10:05:49;;;;;;;15.13;4.60;;;21.20;95.40;;;;;;4985063;28;20054;-58
2022/06/03 10:08:19;;;;;;;7.40;3.90;;;21.20;95.70;;;;;;4980225;28;20090;-57
2022/06/03 10:13:34;;;;;;;15.13;4.13;;;21.20;94.90;;;;;;4979234;28;20082;-57
2022/06/03 10:16:00;;;;;;;12.45;4.40;;;21.20;94.40;;;;;;4981973;28;20350;-57
2022/06/03 10:18:47;;;;;;;16.60;5.55;;;21.20;95.10;;;;;;4979352;28;20050;-57
2022/06/03 10:21:14;;;;;;;9.23;3.63;;;21.30;92.50;;;;;;4983397;28;20095;-58
2022/06/03 10:23:51;;;;;;;8.65;3.97;;;21.40;94.20;;;;;;4994596;28;20101;-58
2022/06/03 10:26:48;;;;;;;10.35;4.10;;;21.50;93.60;;;;;;4984026;28;20050;-58
2022/06/03 10:29:18;;;;;;;11.60;3.80;;;21.50;93.10;;;;;;4976531;28;20069;-58
2022/06/03 10:32:14;;;;;;;10.15;4.55;;;21.60;93.70;;;;;;4981734;28;20046;-57
2022/06/03 10:34:42;;;;;;;10.93;3.95;;;21.90;90.70;;;;;;4984079;28;20618;-57
2022/06/03 10:37:11;;;;;;;12.05;3.50;;;22.30;92.50;;;;;;4985665;28;20082;-58
2022/06/03 10:39:41;;;;;;;7.32;3.83;;;22.50;92.30;;;;;;4983146;28;20052;-59
2022/06/03 10:42:12;;;;;;;10.10;3.95;;;22.50;87.80;;;;;;4985585;28;20085;-58
2022/06/03 10:44:43;;;;;;;7.95;3.80;;;22.50;86.10;;;;;;4981555;28;20093;-58
2022/06/03 10:47:15;;;;;;;8.50;4.38;;;22.70;88.90;;;;;;4983733;28;20524;-60
2022/06/03 10:49:57;;;;;;;12.70;4.13;;;23.00;85.90;;;;;;4981569;28;20057;-58
2022/06/03 11:01:30;;;;;;;11.82;3.10;;;23.20;83.90;;;;;;4984942;28;20660;-59
2022/06/03 11:03:57;;;;;;;9.73;4.18;;;23.20;78.60;;;;;;4976935;28;20142;-58
2022/06/03 11:06:26;;;;;;;12.27;3.13;;;23.10;79.30;;;;;;4977239;28;20142;-59
2022/06/03 11:08:57;;;;;;;4.53;2.42;;;22.90;80.30;;;;;;4980877;28;20050;-59
2022/06/03 11:11:30;;;;;;;11.10;3.63;;;22.80;80.40;;;;;;4983898;28;20673;-59
2022/06/03 11:13:57;;;;;;;11.35;5.13;;;22.80;77.00;;;;;;4982036;28;20053;-58
2022/06/03 11:16:25;;;;;;;11.18;3.75;;;22.60;80.80;;;;;;4977316;28;20157;-58
2022/06/03 11:18:52;;;;;;;7.18;3.28;;;22.60;75.60;;;;;;4979869;28;20046;-57
2022/06/03 11:21:27;;;;;;;13.38;3.53;;;22.50;78.40;;;;;;4977939;28;20047;-57
2022/06/03 11:23:56;;;;;;;6.75;4.05;;;22.40;76.00;;;;;;4975548;28;20537;-56
2022/06/03 11:26:28;;;;;;;6.30;3.25;;;22.30;78.00;;;;;;4976519;28;20134;-58
2022/06/03 11:28:59;;;;;;;8.27;3.33;;;22.30;76.20;;;;;;4979903;28;20129;-55
2022/06/03 11:31:31;;;;;;;5.53;3.53;;;22.30;76.40;;;;;;4981391;28;20074;-54
2022/06/03 11:34:02;;;;;;;9.27;4.55;;;22.30;75.20;;;;;;4980115;28;20140;-56
2022/06/03 11:36:41;;;;;;;6.97;3.60;;;22.20;75.70;;;;;;4979558;28;20136;-53
2022/06/03 11:39:40;;;;;;;6.70;3.08;;;22.20;76.20;;;;;;4976121;28;20138;-51
2022/06/03 11:42:16;;;;;;;7.00;4.07;;;22.30;75.10;;;;;;4974513;28;20086;-56
2022/06/03 11:44:56;;;;;;;9.27;3.55;;;22.20;76.10;;;;;;4985127;28;20058;-57
2022/06/03 11:47:28;;;;;;;13.25;4.70;;;22.30;78.60;;;;;;4983607;28;20054;-57
2022/06/03 11:49:55;;;;;;;8.73;3.63;;;22.30;75.20;;;;;;4991541;28;20082;-57
2022/06/03 11:52:22;;;;;;;9.95;3.85;;;22.30;78.50;;;;;;4980721;28;20051;-56
2022/06/03 11:54:49;;;;;;;9.00;4.18;;;22.30;78.50;;;;;;4959901;28;20050;-58
2022/06/03 11:57:16;;;;;;;9.43;3.33;;;22.40;77.40;;;;;;4983547;28;20410;-56
2022/06/03 11:59:48;;;;;;;8.95;3.80;;;22.30;78.40;;;;;;4979530;28;20054;-59
2022/06/03 12:02:38;;;;;;;10.20;3.95;;;22.30;75.50;;;;;;4978165;28;20133;-57
2022/06/03 12:05:08;;;;;;;8.68;3.50;;;22.30;76.30;;;;;;4977355;28;20050;-57
2022/06/03 12:08:05;;;;;;;10.57;4.25;;;22.40;77.60;;;;;;4989901;28;20060;-57
2022/06/03 12:10:46;;;;;;;11.15;4.80;;;22.40;73.60;;;;;;4981330;28;20129;-58
2022/06/03 12:13:27;;;;;;;10.43;4.07;;;22.40;74.00;;;;;;4969229;28;20051;-56
2022/06/03 12:15:54;;;;;;;13.63;4.45;;;22.50;74.40;;;;;;4990505;28;20122;-57
2022/06/03 12:18:37;;;;;;;9.82;4.30;;;22.60;76.00;;;;;;4984828;28;20532;-55
2022/06/03 12:21:14;;;;;;;13.45;4.55;;;22.70;71.00;;;;;;4977689;28;20054;-57
2022/06/03 12:23:43;;;;;;;6.68;3.90;;;22.90;71.50;;;;;;4985437;28;20517;-58
2022/06/03 12:26:20;;;;;;;7.65;3.88;;;23.00;72.20;;;;;;4983636;28;20458;-57
2022/06/03 12:28:49;;;;;;;9.60;3.92;;;23.00;70.90;;;;;;5001302;28;20567;-57
2022/06/03 12:31:26;;;;;;;11.63;4.15;;;23.10;72.90;;;;;;4980991;28;20618;-56
2022/06/03 12:34:11;;;;;;;10.85;4.47;;;23.20;68.40;;;;;;4989238;28;20043;-58
2022/06/03 12:36:53;;;;;;;10.07;5.10;;;23.20;66.70;;;;;;4986957;28;20042;-56
2022/06/03 12:39:20;;;;;;;17.10;5.63;;;23.20;69.70;;;;;;4984978;28;20524;-58
2022/06/03 12:41:47;;;;;;;10.65;4.45;;;23.30;69.80;;;;;;4982473;28;20469;-57
2022/06/03 12:44:36;;;;;;;14.38;5.03;;;23.30;70.00;;;;;;4986101;28;20042;-57
2022/06/03 12:47:17;;;;;;;13.70;5.07;;;23.10;64.00;;;;;;4990953;28;20164;-58
2022/06/03 12:49:44;;;;;;;24.13;6.95;;;23.00;65.70;;;;;;4987881;28;20056;-57
2022/06/03 12:52:20;;;;;;;8.30;4.45;;;23.00;69.40;;;;;;4986139;28;20126;-57
2022/06/03 12:54:51;;;;;;;9.38;3.75;;;23.00;67.20;;;;;;4983100;28;20062;-56
2022/06/03 12:57:49;;;;;;;12.80;4.10;;;23.10;69.20;;;;;;4983860;28;20078;-55
2022/06/03 13:00:19;;;;;;;7.80;4.30;;;23.00;68.10;;;;;;4980488;28;20077;-55
2022/06/03 13:02:49;;;;;;;11.50;4.70;;;22.90;68.80;;;;;;4983993;28;20539;-57
2022/06/03 13:05:35;;;;;;;16.30;4.47;;;22.90;66.70;;;;;;4984102;28;20048;-56
2022/06/03 13:08:11;;;;;;;8.98;4.50;;;22.90;65.90;;;;;;4984498;28;20139;-57
2022/06/03 13:11:01;;;;;;;7.05;3.80;;;23.00;65.30;;;;;;4980475;28;20150;-58
2022/06/03 13:13:34;;;;;;;9.27;4.63;;;23.20;64.70;;;;;;4983549;28;20085;-57
2022/06/03 13:16:20;;;;;;;9.30;4.55;;;23.60;67.60;;;;;;4981603;28;20050;-58
2022/06/03 13:18:49;;;;;;;8.00;3.60;;;23.80;63.00;;;;;;4981954;28;20058;-57
2022/06/03 13:21:20;;;;;;;9.38;4.55;;;24.10;67.10;;;;;;4980610;28;20130;-56
2022/06/03 13:23:51;;;;;;;8.73;3.70;;;24.10;62.80;;;;;;4986969;28;20084;-56
2022/06/03 13:26:21;;;;;;;13.48;4.93;;;23.90;63.70;;;;;;4981330;28;20125;-58
2022/06/03 13:29:01;;;;;;;10.38;4.18;;;23.80;63.10;;;;;;4982452;28;20054;-53
2022/06/03 13:31:57;;;;;;;11.40;4.30;;;23.80;60.90;;;;;;4980142;28;20319;-56
2022/06/03 13:34:29;;;;;;;10.65;3.80;;;23.80;61.00;;;;;;4983309;28;20130;-57
2022/06/03 13:37:20;;;;;;;6.72;3.63;;;23.60;62.10;;;;;;4989739;28;20125;-55
2022/06/03 13:39:50;;;;;;;15.68;4.15;;;23.40;61.40;;;;;;4987500;28;20093;-58
2022/06/03 13:45:03;;;;;;;11.77;3.55;;;23.20;64.60;;;;;;4988838;28;20126;-56
2022/06/03 13:47:42;;;;;;;10.35;4.03;;;23.30;64.00;;;;;;4981819;28;20172;-57
2022/06/03 13:50:18;;;;;;;22.63;3.67;;;23.20;62.90;;;;;;4982406;28;20081;-57
2022/06/03 13:53:30;;;;;;;7.10;4.35;;;23.20;62.80;;;;;;4984858;28;20050;-57
2022/06/03 13:56:06;;;;;;;8.70;3.85;;;23.20;63.00;;;;;;4955721;28;20133;-57
2022/06/03 13:58:33;;;;;;;7.88;4.00;;;23.30;62.10;;;;;;4980729;28;20042;-55
2022/06/03 14:01:22;;;;;;;8.50;3.60;;;23.20;65.20;;;;;;4983386;28;20109;-57
2022/06/03 14:04:03;;;;;;;5.65;3.05;;;23.20;64.80;;;;;;4981760;28;20046;-60
2022/06/03 14:06:46;;;;;;;14.45;3.80;;;23.10;63.90;;;;;;4986450;28;20762;-57
2022/06/03 14:09:31;;;;;;;10.60;3.55;;;23.00;64.90;;;;;;4985572;28;20050;-57
2022/06/03 14:12:30;;;;;;;8.25;3.55;;;23.10;66.70;;;;;;4990928;28;20136;-58
2022/06/03 14:15:21;;;;;;;13.85;4.38;;;23.20;67.30;;;;;;4985677;28;20074;-57
2022/06/03 14:17:56;;;;;;;10.82;4.55;;;23.00;65.90;;;;;;4982294;28;20204;-59